sensor_id;sensor_type;location;lat;lon;timestamp;temperature;humidity
30308;DHT22;17114;52.314;8.910;2022-12-08T00:00:53;2.70;99.90
30308;DHT22;17114;52.314;8.910;2022-12-08T00:03:20;2.70;99.90
30308;DHT22;17114;52.314;8.910;2022-12-08T00:05:48;2.80;99.90
30308;DHT22;17114;52.314;8.910;2022-12-08T00:08:33;2.90;99.90
30308;DHT22;17114;52.314;8.910;2022-12-08T00:11:19;2.80;99.90
30308;DHT22;17114;52.314;8.910;2022-12-08T00:13:46;3.00;99.90
30308;DHT22;17114;52.314;8.910;2022-12-08T00:16:13;2.90;99.90
30308;DHT22;17114;52.314;8.910;2022-12-08T00:18:39;2.90;99.90
30308;DHT22;17114;52.314;8.910;2022-12-08T00:21:06;2.90;99.90
30308;DHT22;17114;52.314;8.910;2022-12-08T00:23:33;2.90;99.90
30308;DHT22;17114;52.314;8.910;2022-12-08T00:26:02;2.90;99.90
30308;DHT22;17114;52.314;8.910;2022-12-08T00:28:30;2.90;99.90
30308;DHT22;17114;52.314;8.910;2022-12-08T00:30:57;2.90;99.90
30308;DHT22;17114;52.314;8.910;2022-12-08T00:33:24;3.10;99.90
30308;DHT22;17114;52.314;8.910;2022-12-08T00:35:50;2.90;99.90
30308;DHT22;17114;52.314;8.910;2022-12-08T00:38:17;2.90;99.90
30308;DHT22;17114;52.314;8.910;2022-12-08T00:40:45;2.90;99.90
30308;DHT22;17114;52.314;8.910;2022-12-08T00:43:13;2.80;99.90
30308;DHT22;17114;52.314;8.910;2022-12-08T00:45:40;2.80;99.90
30308;DHT22;17114;52.314;8.910;2022-12-08T00:48:07;2.80;99.90
30308;DHT22;17114;52.314;8.910;2022-12-08T00:50:33;2.80;99.90
30308;DHT22;17114;52.314;8.910;2022-12-08T00:53:00;2.70;99.90
30308;DHT22;17114;52.314;8.910;2022-12-08T00:55:27;2.70;99.90
30308;DHT22;17114;52.314;8.910;2022-12-08T00:57:54;2.70;99.90
30308;DHT22;17114;52.314;8.910;2022-12-08T01:00:21;2.60;99.90
30308;DHT22;17114;52.314;8.910;2022-12-08T01:02:48;2.60;99.90
30308;DHT22;17114;52.314;8.910;2022-12-08T01:05:15;2.60;99.90
30308;DHT22;17114;52.314;8.910;2022-12-08T01:07:51;2.60;99.90
30308;DHT22;17114;52.314;8.910;2022-12-08T01:10:18;2.60;99.90
30308;DHT22;17114;52.314;8.910;2022-12-08T01:12:45;2.60;99.90
30308;DHT22;17114;52.314;8.910;2022-12-08T01:15:11;2.60;99.90
30308;DHT22;17114;52.314;8.910;2022-12-08T01:17:38;2.60;99.90
30308;DHT22;17114;52.314;8.910;2022-12-08T01:20:05;2.50;99.90
30308;DHT22;17114;52.314;8.910;2022-12-08T01:22:33;2.60;99.90
30308;DHT22;17114;52.314;8.910;2022-12-08T01:25:03;2.60;99.90
30308;DHT22;17114;52.314;8.910;2022-12-08T01:27:29;2.60;99.90
30308;DHT22;17114;52.314;8.910;2022-12-08T01:29:56;2.60;99.90
30308;DHT22;17114;52.314;8.910;2022-12-08T01:32:23;2.60;99.90
30308;DHT22;17114;52.314;8.910;2022-12-08T01:34:50;2.60;99.90
30308;DHT22;17114;52.314;8.910;2022-12-08T01:37:17;2.60;99.90
30308;DHT22;17114;52.314;8.910;2022-12-08T01:39:43;2.60;99.90
30308;DHT22;17114;52.314;8.910;2022-12-08T01:42:20;2.60;99.90
30308;DHT22;17114;52.314;8.910;2022-12-08T01:45:42;2.60;99.90
30308;DHT22;17114;52.314;8.910;2022-12-08T01:48:08;2.60;99.90
30308;DHT22;17114;52.314;8.910;2022-12-08T01:50:38;2.50;99.90
30308;DHT22;17114;52.314;8.910;2022-12-08T01:53:10;2.50;99.90
30308;DHT22;17114;52.314;8.910;2022-12-08T01:55:41;2.50;99.90
30308;DHT22;17114;52.314;8.910;2022-12-08T01:58:35;2.50;99.90
30308;DHT22;17114;52.314;8.910;2022-12-08T02:01:03;2.50;99.90
30308;DHT22;17114;52.314;8.910;2022-12-08T02:03:39;2.60;99.90
30308;DHT22;17114;52.314;8.910;2022-12-08T02:06:08;2.60;99.90
30308;DHT22;17114;52.314;8.910;2022-12-08T02:08:38;2.50;99.90
30308;DHT22;17114;52.314;8.910;2022-12-08T02:11:09;2.50;99.90
30308;DHT22;17114;52.314;8.910;2022-12-08T02:13:36;2.60;99.90
30308;DHT22;17114;52.314;8.910;2022-12-08T02:16:09;2.50;99.90
30308;DHT22;17114;52.314;8.910;2022-12-08T02:29:44;2.60;99.90
30308;DHT22;17114;52.314;8.910;2022-12-08T02:43:34;2.50;99.90
30308;DHT22;17114;52.314;8.910;2022-12-08T02:46:07;2.50;99.90
30308;DHT22;17114;52.314;8.910;2022-12-08T02:48:36;2.50;99.90
30308;DHT22;17114;52.314;8.910;2022-12-08T02:51:04;2.50;99.90
30308;DHT22;17114;52.314;8.910;2022-12-08T02:53:32;2.50;99.90
30308;DHT22;17114;52.314;8.910;2022-12-08T03:05:02;2.60;99.90
30308;DHT22;17114;52.314;8.910;2022-12-08T03:10:39;2.60;99.90
30308;DHT22;17114;52.314;8.910;2022-12-08T03:13:20;2.60;99.90
30308;DHT22;17114;52.314;8.910;2022-12-08T03:15:49;2.60;99.90
30308;DHT22;17114;52.314;8.910;2022-12-08T03:18:18;2.60;99.90
30308;DHT22;17114;52.314;8.910;2022-12-08T03:20:49;2.60;99.90
30308;DHT22;17114;52.314;8.910;2022-12-08T03:23:17;2.60;99.90
30308;DHT22;17114;52.314;8.910;2022-12-08T03:26:03;2.60;99.90
30308;DHT22;17114;52.314;8.910;2022-12-08T03:28:30;2.70;99.90
30308;DHT22;17114;52.314;8.910;2022-12-08T03:31:01;2.60;99.90
30308;DHT22;17114;52.314;8.910;2022-12-08T03:33:33;2.50;99.90
30308;DHT22;17114;52.314;8.910;2022-12-08T03:36:04;2.50;99.90
30308;DHT22;17114;52.314;8.910;2022-12-08T03:38:37;2.50;99.90
30308;DHT22;17114;52.314;8.910;2022-12-08T03:41:04;2.50;99.90
30308;DHT22;17114;52.314;8.910;2022-12-08T03:43:51;2.50;99.90
30308;DHT22;17114;52.314;8.910;2022-12-08T03:46:25;2.50;99.90
30308;DHT22;17114;52.314;8.910;2022-12-08T03:48:51;2.50;99.90
30308;DHT22;17114;52.314;8.910;2022-12-08T03:51:18;2.60;99.90
30308;DHT22;17114;52.314;8.910;2022-12-08T03:53:45;2.60;99.90
30308;DHT22;17114;52.314;8.910;2022-12-08T03:58:51;2.60;99.90
30308;DHT22;17114;52.314;8.910;2022-12-08T04:01:19;2.70;99.90
30308;DHT22;17114;52.314;8.910;2022-12-08T04:03:46;2.80;99.90
30308;DHT22;17114;52.314;8.910;2022-12-08T04:06:13;2.70;99.90
30308;DHT22;17114;52.314;8.910;2022-12-08T04:08:40;2.70;99.90
30308;DHT22;17114;52.314;8.910;2022-12-08T04:11:07;3.00;99.90
30308;DHT22;17114;52.314;8.910;2022-12-08T04:13:36;2.90;99.90
30308;DHT22;17114;52.314;8.910;2022-12-08T04:16:03;2.80;99.90
30308;DHT22;17114;52.314;8.910;2022-12-08T04:18:31;2.90;99.90
30308;DHT22;17114;52.314;8.910;2022-12-08T04:20:58;2.90;99.90
30308;DHT22;17114;52.314;8.910;2022-12-08T04:23:25;2.90;99.90
30308;DHT22;17114;52.314;8.910;2022-12-08T04:25:53;2.90;99.90
30308;DHT22;17114;52.314;8.910;2022-12-08T04:28:20;3.00;99.90
30308;DHT22;17114;52.314;8.910;2022-12-08T04:30:48;2.90;99.90
30308;DHT22;17114;52.314;8.910;2022-12-08T04:33:15;2.90;99.90
30308;DHT22;17114;52.314;8.910;2022-12-08T04:35:42;2.90;99.90
30308;DHT22;17114;52.314;8.910;2022-12-08T04:38:09;3.00;99.90
30308;DHT22;17114;52.314;8.910;2022-12-08T04:40:36;3.00;99.90
30308;DHT22;17114;52.314;8.910;2022-12-08T04:43:03;3.00;99.90
30308;DHT22;17114;52.314;8.910;2022-12-08T04:45:31;3.00;99.90
30308;DHT22;17114;52.314;8.910;2022-12-08T04:47:59;3.00;99.90
30308;DHT22;17114;52.314;8.910;2022-12-08T04:50:26;3.00;99.90
30308;DHT22;17114;52.314;8.910;2022-12-08T04:52:53;3.00;99.90
30308;DHT22;17114;52.314;8.910;2022-12-08T04:55:20;3.00;99.90
30308;DHT22;17114;52.314;8.910;2022-12-08T04:57:47;3.00;99.90
30308;DHT22;17114;52.314;8.910;2022-12-08T05:00:14;3.00;99.90
30308;DHT22;17114;52.314;8.910;2022-12-08T05:02:41;3.00;99.90
30308;DHT22;17114;52.314;8.910;2022-12-08T05:05:08;3.00;99.90
30308;DHT22;17114;52.314;8.910;2022-12-08T05:07:35;3.00;99.90
30308;DHT22;17114;52.314;8.910;2022-12-08T05:10:02;3.00;99.90
30308;DHT22;17114;52.314;8.910;2022-12-08T05:12:30;3.00;99.90
30308;DHT22;17114;52.314;8.910;2022-12-08T05:14:57;3.00;99.90
30308;DHT22;17114;52.314;8.910;2022-12-08T05:17:23;3.00;99.90
30308;DHT22;17114;52.314;8.910;2022-12-08T05:19:50;3.00;99.90
30308;DHT22;17114;52.314;8.910;2022-12-08T05:22:17;3.00;99.90
30308;DHT22;17114;52.314;8.910;2022-12-08T05:24:44;3.00;99.90
30308;DHT22;17114;52.314;8.910;2022-12-08T05:27:13;3.00;99.90
30308;DHT22;17114;52.314;8.910;2022-12-08T05:29:41;3.00;99.90
30308;DHT22;17114;52.314;8.910;2022-12-08T05:32:08;3.00;99.90
30308;DHT22;17114;52.314;8.910;2022-12-08T05:34:35;2.90;99.90
30308;DHT22;17114;52.314;8.910;2022-12-08T05:37:02;3.00;99.90
30308;DHT22;17114;52.314;8.910;2022-12-08T05:39:28;2.90;99.90
30308;DHT22;17114;52.314;8.910;2022-12-08T05:41:55;2.90;99.90
30308;DHT22;17114;52.314;8.910;2022-12-08T05:44:22;2.80;99.90
30308;DHT22;17114;52.314;8.910;2022-12-08T05:46:49;2.80;99.90
30308;DHT22;17114;52.314;8.910;2022-12-08T05:49:16;2.80;99.90
30308;DHT22;17114;52.314;8.910;2022-12-08T05:51:43;2.80;99.90
30308;DHT22;17114;52.314;8.910;2022-12-08T05:54:10;2.80;99.90
30308;DHT22;17114;52.314;8.910;2022-12-08T05:56:37;2.70;99.90
30308;DHT22;17114;52.314;8.910;2022-12-08T05:59:07;2.70;99.90
30308;DHT22;17114;52.314;8.910;2022-12-08T06:01:34;2.70;99.90
30308;DHT22;17114;52.314;8.910;2022-12-08T06:04:02;2.80;99.90
30308;DHT22;17114;52.314;8.910;2022-12-08T06:06:30;2.70;99.90
30308;DHT22;17114;52.314;8.910;2022-12-08T06:09:02;2.70;99.90
30308;DHT22;17114;52.314;8.910;2022-12-08T06:11:30;2.70;99.90
30308;DHT22;17114;52.314;8.910;2022-12-08T06:13:58;2.80;99.90
30308;DHT22;17114;52.314;8.910;2022-12-08T06:16:26;2.70;99.90
30308;DHT22;17114;52.314;8.910;2022-12-08T06:18:54;2.70;99.90
30308;DHT22;17114;52.314;8.910;2022-12-08T06:21:21;2.70;99.90
30308;DHT22;17114;52.314;8.910;2022-12-08T06:23:50;2.80;99.90
30308;DHT22;17114;52.314;8.910;2022-12-08T06:26:18;2.70;99.90
30308;DHT22;17114;52.314;8.910;2022-12-08T06:28:46;2.80;99.90
30308;DHT22;17114;52.314;8.910;2022-12-08T06:31:18;2.70;99.90
30308;DHT22;17114;52.314;8.910;2022-12-08T06:33:45;2.60;99.90
30308;DHT22;17114;52.314;8.910;2022-12-08T06:36:14;2.70;99.90
30308;DHT22;17114;52.314;8.910;2022-12-08T06:38:41;2.80;99.90
30308;DHT22;17114;52.314;8.910;2022-12-08T06:41:10;2.80;99.90
30308;DHT22;17114;52.314;8.910;2022-12-08T06:43:41;2.70;99.90
30308;DHT22;17114;52.314;8.910;2022-12-08T06:46:11;2.80;99.90
30308;DHT22;17114;52.314;8.910;2022-12-08T06:48:38;2.80;99.90
30308;DHT22;17114;52.314;8.910;2022-12-08T06:51:11;2.90;99.90
30308;DHT22;17114;52.314;8.910;2022-12-08T06:53:39;2.80;99.90
30308;DHT22;17114;52.314;8.910;2022-12-08T06:56:06;2.80;99.90
30308;DHT22;17114;52.314;8.910;2022-12-08T06:58:34;2.90;99.90
30308;DHT22;17114;52.314;8.910;2022-12-08T07:03:32;3.10;99.90
30308;DHT22;17114;52.314;8.910;2022-12-08T07:05:59;2.90;99.90
30308;DHT22;17114;52.314;8.910;2022-12-08T07:08:30;3.00;99.90
30308;DHT22;17114;52.314;8.910;2022-12-08T07:10:57;2.90;99.90
30308;DHT22;17114;52.314;8.910;2022-12-08T07:13:24;3.00;99.90
30308;DHT22;17114;52.314;8.910;2022-12-08T07:15:51;3.00;99.90
30308;DHT22;17114;52.314;8.910;2022-12-08T07:18:19;3.00;99.90
30308;DHT22;17114;52.314;8.910;2022-12-08T07:20:46;3.00;99.90
30308;DHT22;17114;52.314;8.910;2022-12-08T07:23:12;3.00;99.90
30308;DHT22;17114;52.314;8.910;2022-12-08T07:25:39;3.00;99.90
30308;DHT22;17114;52.314;8.910;2022-12-08T07:28:08;3.00;99.90
30308;DHT22;17114;52.314;8.910;2022-12-08T07:30:35;3.00;99.90
30308;DHT22;17114;52.314;8.910;2022-12-08T07:33:05;3.00;99.90
30308;DHT22;17114;52.314;8.910;2022-12-08T07:35:32;3.00;99.90
30308;DHT22;17114;52.314;8.910;2022-12-08T07:38:01;3.10;99.90
30308;DHT22;17114;52.314;8.910;2022-12-08T07:40:28;3.20;99.90
30308;DHT22;17114;52.314;8.910;2022-12-08T07:42:54;3.10;99.90
30308;DHT22;17114;52.314;8.910;2022-12-08T07:45:21;3.10;99.90
30308;DHT22;17114;52.314;8.910;2022-12-08T07:47:56;3.10;99.90
30308;DHT22;17114;52.314;8.910;2022-12-08T07:50:23;3.10;99.90
30308;DHT22;17114;52.314;8.910;2022-12-08T07:52:50;3.10;99.90
30308;DHT22;17114;52.314;8.910;2022-12-08T07:55:17;3.10;99.90
30308;DHT22;17114;52.314;8.910;2022-12-08T07:57:44;3.30;99.90
30308;DHT22;17114;52.314;8.910;2022-12-08T08:00:11;3.10;99.90
30308;DHT22;17114;52.314;8.910;2022-12-08T08:02:38;3.10;99.90
30308;DHT22;17114;52.314;8.910;2022-12-08T08:05:06;3.20;99.90
30308;DHT22;17114;52.314;8.910;2022-12-08T08:07:33;3.20;99.90
30308;DHT22;17114;52.314;8.910;2022-12-08T08:10:00;3.20;99.90
30308;DHT22;17114;52.314;8.910;2022-12-08T08:12:28;3.20;99.90
30308;DHT22;17114;52.314;8.910;2022-12-08T08:14:59;3.20;99.90
30308;DHT22;17114;52.314;8.910;2022-12-08T08:17:27;3.30;99.90
30308;DHT22;17114;52.314;8.910;2022-12-08T08:19:54;3.20;99.90
30308;DHT22;17114;52.314;8.910;2022-12-08T08:22:21;3.20;99.90
30308;DHT22;17114;52.314;8.910;2022-12-08T08:24:48;3.20;99.90
30308;DHT22;17114;52.314;8.910;2022-12-08T08:27:15;3.20;99.90
30308;DHT22;17114;52.314;8.910;2022-12-08T08:29:42;3.30;99.90
30308;DHT22;17114;52.314;8.910;2022-12-08T08:32:09;3.30;99.90
30308;DHT22;17114;52.314;8.910;2022-12-08T08:34:36;3.30;99.90
30308;DHT22;17114;52.314;8.910;2022-12-08T08:37:03;3.30;99.90
30308;DHT22;17114;52.314;8.910;2022-12-08T08:39:30;3.30;99.90
30308;DHT22;17114;52.314;8.910;2022-12-08T08:41:57;3.30;99.90
30308;DHT22;17114;52.314;8.910;2022-12-08T08:44:24;3.20;99.90
30308;DHT22;17114;52.314;8.910;2022-12-08T08:46:51;3.30;99.90
30308;DHT22;17114;52.314;8.910;2022-12-08T08:49:18;3.30;99.90
30308;DHT22;17114;52.314;8.910;2022-12-08T08:51:45;3.20;99.90
30308;DHT22;17114;52.314;8.910;2022-12-08T08:54:12;3.10;99.90
30308;DHT22;17114;52.314;8.910;2022-12-08T08:56:39;3.10;99.90
30308;DHT22;17114;52.314;8.910;2022-12-08T08:59:06;3.10;99.90
30308;DHT22;17114;52.314;8.910;2022-12-08T09:01:33;3.10;99.90
30308;DHT22;17114;52.314;8.910;2022-12-08T09:04:00;3.20;99.90
30308;DHT22;17114;52.314;8.910;2022-12-08T09:06:27;3.20;99.90
30308;DHT22;17114;52.314;8.910;2022-12-08T09:08:54;3.10;99.90
30308;DHT22;17114;52.314;8.910;2022-12-08T09:11:21;3.10;99.90
30308;DHT22;17114;52.314;8.910;2022-12-08T09:13:50;3.10;99.90
30308;DHT22;17114;52.314;8.910;2022-12-08T09:16:18;3.00;99.90
30308;DHT22;17114;52.314;8.910;2022-12-08T09:18:45;3.10;99.90
30308;DHT22;17114;52.314;8.910;2022-12-08T09:21:16;3.10;99.90
30308;DHT22;17114;52.314;8.910;2022-12-08T09:23:45;3.20;99.90
30308;DHT22;17114;52.314;8.910;2022-12-08T09:26:12;3.20;99.90
30308;DHT22;17114;52.314;8.910;2022-12-08T09:28:39;3.20;99.90
30308;DHT22;17114;52.314;8.910;2022-12-08T09:31:13;3.20;99.90
30308;DHT22;17114;52.314;8.910;2022-12-08T09:33:40;3.20;99.90
30308;DHT22;17114;52.314;8.910;2022-12-08T09:36:07;3.20;99.90
30308;DHT22;17114;52.314;8.910;2022-12-08T09:38:35;3.20;99.90
30308;DHT22;17114;52.314;8.910;2022-12-08T09:41:04;3.20;99.90
30308;DHT22;17114;52.314;8.910;2022-12-08T09:46:29;3.20;99.90
30308;DHT22;17114;52.314;8.910;2022-12-08T09:48:58;3.20;99.90
30308;DHT22;17114;52.314;8.910;2022-12-08T09:51:32;3.20;99.90
30308;DHT22;17114;52.314;8.910;2022-12-08T09:54:07;3.20;99.90
30308;DHT22;17114;52.314;8.910;2022-12-08T09:56:38;3.30;99.90
30308;DHT22;17114;52.314;8.910;2022-12-08T10:01:36;3.20;99.90
30308;DHT22;17114;52.314;8.910;2022-12-08T10:06:55;3.30;99.90
30308;DHT22;17114;52.314;8.910;2022-12-08T10:09:34;3.30;99.90
30308;DHT22;17114;52.314;8.910;2022-12-08T10:12:17;3.30;99.90
30308;DHT22;17114;52.314;8.910;2022-12-08T10:17:49;3.40;99.90
30308;DHT22;17114;52.314;8.910;2022-12-08T10:20:23;3.50;99.90
30308;DHT22;17114;52.314;8.910;2022-12-08T10:25:47;3.50;99.90
30308;DHT22;17114;52.314;8.910;2022-12-08T10:28:14;3.40;99.90
30308;DHT22;17114;52.314;8.910;2022-12-08T10:30:41;3.60;99.90
30308;DHT22;17114;52.314;8.910;2022-12-08T10:33:15;3.50;99.90
30308;DHT22;17114;52.314;8.910;2022-12-08T10:38:30;3.50;99.90
30308;DHT22;17114;52.314;8.910;2022-12-08T10:41:15;3.60;99.90
30308;DHT22;17114;52.314;8.910;2022-12-08T10:43:47;3.70;99.90
30308;DHT22;17114;52.314;8.910;2022-12-08T10:46:18;3.70;99.90
30308;DHT22;17114;52.314;8.910;2022-12-08T10:53:59;3.70;99.90
30308;DHT22;17114;52.314;8.910;2022-12-08T10:56:29;3.70;99.90
30308;DHT22;17114;52.314;8.910;2022-12-08T10:59:17;3.70;99.90
30308;DHT22;17114;52.314;8.910;2022-12-08T11:01:48;3.70;99.90
30308;DHT22;17114;52.314;8.910;2022-12-08T11:04:22;3.80;99.90
30308;DHT22;17114;52.314;8.910;2022-12-08T11:06:51;3.70;99.90
30308;DHT22;17114;52.314;8.910;2022-12-08T11:14:27;3.90;99.90
30308;DHT22;17114;52.314;8.910;2022-12-08T11:20:00;3.90;99.90
30308;DHT22;17114;52.314;8.910;2022-12-08T11:22:34;3.90;99.90
30308;DHT22;17114;52.314;8.910;2022-12-08T11:27:35;4.00;99.90
30308;DHT22;17114;52.314;8.910;2022-12-08T11:30:15;4.00;99.90
30308;DHT22;17114;52.314;8.910;2022-12-08T11:32:48;4.00;99.90
30308;DHT22;17114;52.314;8.910;2022-12-08T11:35:32;4.10;99.90
30308;DHT22;17114;52.314;8.910;2022-12-08T11:38:09;4.10;99.90
30308;DHT22;17114;52.314;8.910;2022-12-08T11:40:53;4.10;99.90
30308;DHT22;17114;52.314;8.910;2022-12-08T11:46:02;4.00;99.90
30308;DHT22;17114;52.314;8.910;2022-12-08T11:52:06;4.00;99.90
30308;DHT22;17114;52.314;8.910;2022-12-08T11:57:23;4.00;99.90
30308;DHT22;17114;52.314;8.910;2022-12-08T11:59:55;4.00;99.90
30308;DHT22;17114;52.314;8.910;2022-12-08T12:02:28;4.00;99.90
30308;DHT22;17114;52.314;8.910;2022-12-08T12:05:06;4.00;99.90
30308;DHT22;17114;52.314;8.910;2022-12-08T12:18:51;4.10;99.90
30308;DHT22;17114;52.314;8.910;2022-12-08T12:21:33;4.20;99.90
30308;DHT22;17114;52.314;8.910;2022-12-08T12:24:08;4.20;99.90
30308;DHT22;17114;52.314;8.910;2022-12-08T12:26:38;4.10;99.90
30308;DHT22;17114;52.314;8.910;2022-12-08T12:29:20;4.10;99.90
30308;DHT22;17114;52.314;8.910;2022-12-08T12:31:53;4.10;99.90
30308;DHT22;17114;52.314;8.910;2022-12-08T12:34:31;4.10;99.90
30308;DHT22;17114;52.314;8.910;2022-12-08T12:37:10;4.20;99.90
30308;DHT22;17114;52.314;8.910;2022-12-08T12:42:47;4.20;99.90
30308;DHT22;17114;52.314;8.910;2022-12-08T13:03:45;4.30;99.90
30308;DHT22;17114;52.314;8.910;2022-12-08T13:06:22;4.30;99.90
30308;DHT22;17114;52.314;8.910;2022-12-08T13:08:52;4.30;99.90
30308;DHT22;17114;52.314;8.910;2022-12-08T13:11:20;4.30;99.90
30308;DHT22;17114;52.314;8.910;2022-12-08T13:13:56;4.30;99.90
30308;DHT22;17114;52.314;8.910;2022-12-08T13:16:30;4.30;99.90
30308;DHT22;17114;52.314;8.910;2022-12-08T13:18:59;4.30;99.90
30308;DHT22;17114;52.314;8.910;2022-12-08T13:21:35;4.30;99.90
30308;DHT22;17114;52.314;8.910;2022-12-08T13:26:50;4.10;99.90
30308;DHT22;17114;52.314;8.910;2022-12-08T13:29:37;4.20;99.90
30308;DHT22;17114;52.314;8.910;2022-12-08T13:34:56;4.20;99.90
30308;DHT22;17114;52.314;8.910;2022-12-08T13:37:44;4.20;99.90
30308;DHT22;17114;52.314;8.910;2022-12-08T13:40:23;4.30;99.90
30308;DHT22;17114;52.314;8.910;2022-12-08T13:45:25;4.00;99.90
30308;DHT22;17114;52.314;8.910;2022-12-08T13:48:47;4.10;99.90
30308;DHT22;17114;52.314;8.910;2022-12-08T13:51:44;4.10;99.90
30308;DHT22;17114;52.314;8.910;2022-12-08T13:54:34;4.10;99.90
30308;DHT22;17114;52.314;8.910;2022-12-08T13:57:28;4.10;99.90
30308;DHT22;17114;52.314;8.910;2022-12-08T14:00:11;4.00;99.90
30308;DHT22;17114;52.314;8.910;2022-12-08T14:02:42;4.00;99.90
30308;DHT22;17114;52.314;8.910;2022-12-08T14:05:15;4.00;99.90
30308;DHT22;17114;52.314;8.910;2022-12-08T14:07:48;3.90;99.90
30308;DHT22;17114;52.314;8.910;2022-12-08T14:10:23;3.90;99.90
30308;DHT22;17114;52.314;8.910;2022-12-08T14:12:56;3.80;99.90
30308;DHT22;17114;52.314;8.910;2022-12-08T14:15:24;3.90;99.90
30308;DHT22;17114;52.314;8.910;2022-12-08T14:17:54;4.00;99.90
30308;DHT22;17114;52.314;8.910;2022-12-08T14:22:54;3.80;99.90
30308;DHT22;17114;52.314;8.910;2022-12-08T14:25:22;3.80;99.90
30308;DHT22;17114;52.314;8.910;2022-12-08T14:27:49;3.70;99.90
30308;DHT22;17114;52.314;8.910;2022-12-08T14:33:01;3.60;99.90
30308;DHT22;17114;52.314;8.910;2022-12-08T14:38:00;3.60;99.90
30308;DHT22;17114;52.314;8.910;2022-12-08T14:40:36;3.60;99.90
30308;DHT22;17114;52.314;8.910;2022-12-08T14:45:58;3.50;99.90
30308;DHT22;17114;52.314;8.910;2022-12-08T14:48:40;3.50;99.90
30308;DHT22;17114;52.314;8.910;2022-12-08T14:51:22;3.40;99.90
30308;DHT22;17114;52.314;8.910;2022-12-08T14:56:29;3.40;99.90
30308;DHT22;17114;52.314;8.910;2022-12-08T15:01:43;3.30;99.90
30308;DHT22;17114;52.314;8.910;2022-12-08T15:04:14;3.30;99.90
30308;DHT22;17114;52.314;8.910;2022-12-08T15:07:05;3.10;99.90
30308;DHT22;17114;52.314;8.910;2022-12-08T15:09:42;3.10;99.90
30308;DHT22;17114;52.314;8.910;2022-12-08T15:14:42;3.00;99.90
30308;DHT22;17114;52.314;8.910;2022-12-08T15:17:40;3.10;99.90
30308;DHT22;17114;52.314;8.910;2022-12-08T15:20:41;2.90;99.90
30308;DHT22;17114;52.314;8.910;2022-12-08T15:23:27;2.90;99.90
30308;DHT22;17114;52.314;8.910;2022-12-08T15:25:54;2.80;99.90
30308;DHT22;17114;52.314;8.910;2022-12-08T15:28:24;2.80;99.90
30308;DHT22;17114;52.314;8.910;2022-12-08T15:30:57;2.70;99.90
30308;DHT22;17114;52.314;8.910;2022-12-08T15:33:25;2.70;99.90
30308;DHT22;17114;52.314;8.910;2022-12-08T15:35:52;2.70;99.90
30308;DHT22;17114;52.314;8.910;2022-12-08T15:38:27;2.60;99.90
30308;DHT22;17114;52.314;8.910;2022-12-08T15:40:55;2.50;99.90
30308;DHT22;17114;52.314;8.910;2022-12-08T15:43:24;2.60;99.90
30308;DHT22;17114;52.314;8.910;2022-12-08T15:45:51;2.40;99.90
30308;DHT22;17114;52.314;8.910;2022-12-08T15:48:27;2.30;99.90
30308;DHT22;17114;52.314;8.910;2022-12-08T15:50:55;2.30;99.90
30308;DHT22;17114;52.314;8.910;2022-12-08T15:53:22;2.30;99.90
30308;DHT22;17114;52.314;8.910;2022-12-08T15:55:49;2.30;99.90
30308;DHT22;17114;52.314;8.910;2022-12-08T15:58:36;2.10;99.90
30308;DHT22;17114;52.314;8.910;2022-12-08T16:01:20;2.00;99.90
30308;DHT22;17114;52.314;8.910;2022-12-08T16:03:47;2.00;99.90
30308;DHT22;17114;52.314;8.910;2022-12-08T16:06:34;1.80;99.90
30308;DHT22;17114;52.314;8.910;2022-12-08T16:09:31;1.80;99.90
30308;DHT22;17114;52.314;8.910;2022-12-08T16:11:59;1.70;99.90
30308;DHT22;17114;52.314;8.910;2022-12-08T16:14:45;1.70;99.90
30308;DHT22;17114;52.314;8.910;2022-12-08T16:17:33;1.60;99.90
30308;DHT22;17114;52.314;8.910;2022-12-08T16:20:05;1.60;99.90
30308;DHT22;17114;52.314;8.910;2022-12-08T16:22:33;1.60;99.90
30308;DHT22;17114;52.314;8.910;2022-12-08T16:25:21;1.80;99.90
30308;DHT22;17114;52.314;8.910;2022-12-08T16:27:52;1.60;99.90
30308;DHT22;17114;52.314;8.910;2022-12-08T16:30:39;1.70;99.90
30308;DHT22;17114;52.314;8.910;2022-12-08T16:33:06;1.70;99.90
30308;DHT22;17114;52.314;8.910;2022-12-08T16:35:33;1.80;99.90
30308;DHT22;17114;52.314;8.910;2022-12-08T16:38:00;1.80;99.90
30308;DHT22;17114;52.314;8.910;2022-12-08T16:40:27;1.80;99.90
30308;DHT22;17114;52.314;8.910;2022-12-08T16:42:54;2.00;99.90
30308;DHT22;17114;52.314;8.910;2022-12-08T16:45:23;1.80;99.90
30308;DHT22;17114;52.314;8.910;2022-12-08T16:47:54;1.80;99.90
30308;DHT22;17114;52.314;8.910;2022-12-08T16:50:32;1.90;99.90
30308;DHT22;17114;52.314;8.910;2022-12-08T16:53:03;2.00;99.90
30308;DHT22;17114;52.314;8.910;2022-12-08T16:55:30;2.00;99.90
30308;DHT22;17114;52.314;8.910;2022-12-08T16:57:57;2.00;99.90
30308;DHT22;17114;52.314;8.910;2022-12-08T17:00:26;2.10;99.90
30308;DHT22;17114;52.314;8.910;2022-12-08T17:02:54;2.00;99.90
30308;DHT22;17114;52.314;8.910;2022-12-08T17:05:23;2.10;99.90
30308;DHT22;17114;52.314;8.910;2022-12-08T17:07:51;2.10;99.90
30308;DHT22;17114;52.314;8.910;2022-12-08T17:10:25;2.00;99.90
30308;DHT22;17114;52.314;8.910;2022-12-08T17:12:54;1.90;99.90
30308;DHT22;17114;52.314;8.910;2022-12-08T17:15:23;1.90;99.90
30308;DHT22;17114;52.314;8.910;2022-12-08T17:17:51;1.80;99.90
30308;DHT22;17114;52.314;8.910;2022-12-08T17:20:20;1.70;99.90
30308;DHT22;17114;52.314;8.910;2022-12-08T17:22:48;1.60;99.90
30308;DHT22;17114;52.314;8.910;2022-12-08T17:25:15;1.50;99.90
30308;DHT22;17114;52.314;8.910;2022-12-08T17:27:42;1.50;99.90
30308;DHT22;17114;52.314;8.910;2022-12-08T17:30:10;1.50;99.90
30308;DHT22;17114;52.314;8.910;2022-12-08T17:32:38;1.30;99.90
30308;DHT22;17114;52.314;8.910;2022-12-08T17:35:05;1.30;99.90
30308;DHT22;17114;52.314;8.910;2022-12-08T17:37:33;1.20;99.90
30308;DHT22;17114;52.314;8.910;2022-12-08T17:40:00;1.20;99.90
30308;DHT22;17114;52.314;8.910;2022-12-08T17:42:27;1.10;99.90
30308;DHT22;17114;52.314;8.910;2022-12-08T17:44:54;1.10;99.90
30308;DHT22;17114;52.314;8.910;2022-12-08T17:47:21;1.00;99.90
30308;DHT22;17114;52.314;8.910;2022-12-08T17:49:48;1.00;99.90
30308;DHT22;17114;52.314;8.910;2022-12-08T17:52:15;1.00;99.90
30308;DHT22;17114;52.314;8.910;2022-12-08T17:54:42;0.90;99.90
30308;DHT22;17114;52.314;8.910;2022-12-08T17:57:09;1.00;99.90
30308;DHT22;17114;52.314;8.910;2022-12-08T17:59:36;1.00;99.90
30308;DHT22;17114;52.314;8.910;2022-12-08T18:02:03;1.00;99.90
30308;DHT22;17114;52.314;8.910;2022-12-08T18:04:31;1.00;99.90
30308;DHT22;17114;52.314;8.910;2022-12-08T18:06:57;1.00;99.90
30308;DHT22;17114;52.314;8.910;2022-12-08T18:09:29;1.00;99.90
30308;DHT22;17114;52.314;8.910;2022-12-08T18:11:56;1.00;99.90
30308;DHT22;17114;52.314;8.910;2022-12-08T18:14:23;1.00;99.90
30308;DHT22;17114;52.314;8.910;2022-12-08T18:16:51;1.10;99.90
30308;DHT22;17114;52.314;8.910;2022-12-08T18:19:21;1.20;99.90
30308;DHT22;17114;52.314;8.910;2022-12-08T18:21:48;1.20;99.90
30308;DHT22;17114;52.314;8.910;2022-12-08T18:24:20;1.20;99.90
30308;DHT22;17114;52.314;8.910;2022-12-08T18:26:51;1.20;99.90